createdAt,value
2022-08-19T00:00:55.130Z,9.31
2022-08-19T00:03:25.581Z,9.27
2022-08-19T00:05:55.689Z,9.16
2022-08-19T00:08:26.610Z,9.02
2022-08-19T00:10:57.078Z,8.90
2022-08-19T00:13:28.969Z,8.79
2022-08-19T00:16:00.935Z,8.80
2022-08-19T00:18:31.621Z,8.65
2022-08-19T00:21:02.808Z,8.59
2022-08-19T00:23:34.124Z,8.45
2022-08-19T00:26:05.754Z,8.35
2022-08-19T00:28:46.280Z,8.28
2022-08-19T00:31:18.484Z,8.24
2022-08-19T00:33:50.140Z,8.06
2022-08-19T00:36:20.690Z,8.21
2022-08-19T00:38:51.754Z,8.38
2022-08-19T00:41:25.259Z,8.31
2022-08-19T00:44:08.739Z,8.03
2022-08-19T00:46:41.304Z,7.91
2022-08-19T00:49:23.574Z,7.83
2022-08-19T00:52:15.435Z,7.75
2022-08-19T00:54:50.775Z,7.80
2022-08-19T00:57:37.547Z,7.70
2022-08-19T01:00:15.288Z,7.59
2022-08-19T01:02:46.607Z,7.45
2022-08-19T01:05:23.009Z,7.39
2022-08-19T01:07:53.827Z,7.39
2022-08-19T01:10:33.548Z,7.26
2022-08-19T01:13:07.770Z,7.15
2022-08-19T01:15:52.935Z,7.11
2022-08-19T01:18:23.974Z,7.07
2022-08-19T01:20:56.897Z,7.04
2022-08-19T01:23:44.638Z,7.12
2022-08-19T01:26:19.955Z,7.01
2022-08-19T01:28:53.576Z,7.03
2022-08-19T01:31:28.564Z,7.04
2022-08-19T01:34:00.741Z,7.07
2022-08-19T01:36:34.951Z,7.14
2022-08-19T01:39:10.062Z,7.03
2022-08-19T01:41:40.839Z,6.97
2022-08-19T01:44:18.580Z,7.01
2022-08-19T01:46:50.849Z,6.91
2022-08-19T01:49:23.961Z,7.05
2022-08-19T01:51:56.964Z,7.15
2022-08-19T01:54:28.485Z,7.07
2022-08-19T01:57:06.728Z,7.04
2022-08-19T01:59:38.666Z,7.11
2022-08-19T02:02:12.692Z,7.17
2022-08-19T02:04:43.530Z,7.19
2022-08-19T02:07:13.633Z,7.19
2022-08-19T02:09:43.932Z,7.11
2022-08-19T02:12:14.657Z,7.04
2022-08-19T02:14:45.751Z,7.04
2022-08-19T02:17:16.394Z,7.15
2022-08-19T02:19:46.324Z,7.31
2022-08-19T02:22:17.157Z,7.11
2022-08-19T02:24:48.734Z,7.01
2022-08-19T02:27:19.096Z,6.91
2022-08-19T02:29:51.106Z,6.84
2022-08-19T02:32:22.805Z,6.77
2022-08-19T02:34:53.474Z,6.76
2022-08-19T02:37:42.355Z,6.86
2022-08-19T02:40:13.299Z,6.90
2022-08-19T02:42:45.198Z,7.00
2022-08-19T02:45:17.239Z,7.04
2022-08-19T02:47:47.991Z,6.97
2022-08-19T02:50:18.536Z,7.07
2022-08-19T02:52:48.660Z,7.05
2022-08-19T02:55:19.249Z,7.07
2022-08-19T02:57:50.249Z,7.03
2022-08-19T03:00:21.062Z,7.04
2022-08-19T03:02:51.297Z,7.03
2022-08-19T03:05:25.242Z,6.93
2022-08-19T03:08:14.583Z,6.74
2022-08-19T03:10:47.548Z,6.80
2022-08-19T03:13:20.184Z,6.67
2022-08-19T03:15:51.213Z,6.53
2022-08-19T03:18:23.261Z,6.39
2022-08-19T03:20:56.698Z,6.54
2022-08-19T03:23:27.040Z,6.62
2022-08-19T03:26:03.282Z,6.60
2022-08-19T03:28:58.121Z,6.45
2022-08-19T03:31:44.462Z,6.26
2022-08-19T03:34:29.604Z,6.06
2022-08-19T03:37:05.785Z,6.32
2022-08-19T03:39:38.742Z,6.35
2022-08-19T03:42:38.559Z,6.29
2022-08-19T03:45:00.658Z,6.32
2022-08-19T03:47:30.675Z,6.46
2022-08-19T03:50:01.449Z,6.39
2022-08-19T03:52:31.786Z,6.47
2022-08-19T03:55:02.359Z,6.46
2022-08-19T03:57:32.395Z,6.46
2022-08-19T04:00:12.487Z,6.39
2022-08-19T04:02:58.336Z,6.43
2022-08-19T04:05:31.894Z,6.42
2022-08-19T04:08:02.744Z,6.37
2022-08-19T04:10:33.636Z,6.28
2022-08-19T04:13:04.355Z,6.32
2022-08-19T04:15:41.135Z,6.24
2022-08-19T04:18:12.753Z,6.15
2022-08-19T04:20:46.169Z,6.09
2022-08-19T04:23:17.471Z,6.09
2022-08-19T04:25:48.067Z,6.02
2022-08-19T04:28:18.318Z,5.99
2022-08-19T04:30:52.316Z,6.01
2022-08-19T04:33:26.687Z,6.02
2022-08-19T04:36:00.498Z,6.01
2022-08-19T04:38:30.854Z,5.95
2022-08-19T04:41:20.349Z,5.78
2022-08-19T04:43:51.072Z,5.71
2022-08-19T04:46:39.652Z,5.78
2022-08-19T04:49:13.106Z,5.79
2022-08-19T04:51:46.501Z,5.88
2022-08-19T04:54:30.943Z,5.87
2022-08-19T04:57:11.925Z,5.88
2022-08-19T04:59:42.257Z,5.78
2022-08-19T05:02:12.684Z,5.67
2022-08-19T05:04:43.599Z,5.74
2022-08-19T05:07:13.775Z,5.71
2022-08-19T05:09:58.076Z,5.73
2022-08-19T05:12:30.947Z,5.70
2022-08-19T05:15:03.016Z,5.54
2022-08-19T05:17:38.107Z,5.32
2022-08-19T05:20:28.499Z,5.43
2022-08-19T05:22:59.128Z,5.33
2022-08-19T05:25:29.710Z,5.11
2022-08-19T05:28:00.111Z,5.04
2022-08-19T05:30:46.108Z,5.15
2022-08-19T05:33:18.055Z,5.32
2022-08-19T05:35:50.510Z,5.26
2022-08-19T05:38:21.465Z,5.16
2022-08-19T05:40:51.683Z,5.02
2022-08-19T05:43:22.616Z,4.95
2022-08-19T05:45:52.985Z,4.77
2022-08-19T05:48:23.551Z,4.77
2022-08-19T05:50:53.560Z,4.77
2022-08-19T05:53:24.126Z,4.69
2022-08-19T05:55:54.877Z,4.58
2022-08-19T05:58:27.106Z,4.53
2022-08-19T06:00:58.599Z,4.47
2022-08-19T06:03:29.410Z,4.37
2022-08-19T06:06:01.724Z,4.36
2022-08-19T06:08:34.026Z,4.21
2022-08-19T06:11:25.860Z,4.16
2022-08-19T06:14:00.330Z,4.18
2022-08-19T06:16:33.882Z,4.14
2022-08-19T06:19:08.844Z,4.06
2022-08-19T06:21:42.631Z,4.06
2022-08-19T06:24:16.446Z,4.03
2022-08-19T06:29:27.804Z,3.95
2022-08-19T06:32:00.830Z,3.87
2022-08-19T06:34:31.991Z,3.87
2022-08-19T06:37:04.196Z,3.86
2022-08-19T06:39:38.117Z,3.85
2022-08-19T06:42:11.944Z,3.81
2022-08-19T06:44:48.190Z,3.76
2022-08-19T06:47:25.334Z,3.75
2022-08-19T06:50:05.611Z,3.71
2022-08-19T06:52:38.261Z,3.71
2022-08-19T06:55:09.463Z,3.75
2022-08-19T06:57:40.357Z,3.72
2022-08-19T07:00:18.058Z,3.66
2022-08-19T07:02:53.353Z,3.56
2022-08-19T07:05:25.847Z,3.54
2022-08-19T07:07:57.022Z,3.44
2022-08-19T07:10:28.887Z,3.48
2022-08-19T07:12:59.157Z,3.39
2022-08-19T07:15:29.382Z,3.38
2022-08-19T07:18:00.076Z,3.41
2022-08-19T07:20:30.766Z,3.39
2022-08-19T07:23:01.205Z,3.37
2022-08-19T07:25:32.463Z,3.35
2022-08-19T07:28:03.890Z,3.35
2022-08-19T07:30:34.757Z,3.27
2022-08-19T07:33:04.688Z,3.23
2022-08-19T07:35:36.118Z,3.21
2022-08-19T07:38:06.530Z,3.21
2022-08-19T07:40:37.089Z,3.17
2022-08-19T07:43:10.163Z,3.20
2022-08-19T07:45:44.540Z,3.13
2022-08-19T07:48:16.652Z,3.11
2022-08-19T07:50:47.614Z,3.13
2022-08-19T07:53:17.659Z,3.11
2022-08-19T07:55:48.034Z,3.08
2022-08-19T07:58:22.031Z,3.01
2022-08-19T08:00:54.201Z,3.01
2022-08-19T08:03:47.975Z,2.97
2022-08-19T08:06:37.140Z,2.97
2022-08-19T08:09:16.426Z,2.97
2022-08-19T08:12:05.002Z,2.87
2022-08-19T08:14:46.164Z,2.87
2022-08-19T08:17:31.038Z,2.85
2022-08-19T08:20:13.542Z,2.86
2022-08-19T08:23:07.490Z,2.83
2022-08-19T08:25:38.731Z,2.83
2022-08-19T08:28:11.455Z,2.79
2022-08-19T08:30:50.751Z,2.72
2022-08-19T08:33:33.558Z,2.72
2022-08-19T08:36:07.702Z,2.71
2022-08-19T08:38:40.114Z,2.67
2022-08-19T08:41:25.642Z,2.62
2022-08-19T08:43:57.583Z,2.59
2022-08-19T08:46:37.257Z,2.56
2022-08-19T08:49:44.319Z,2.60
2022-08-19T08:52:23.956Z,2.52
2022-08-19T08:55:00.581Z,2.53
2022-08-19T08:57:50.898Z,2.48
2022-08-19T09:00:28.918Z,2.53
2022-08-19T09:03:01.562Z,2.50
2022-08-19T09:05:55.443Z,2.53
2022-08-19T09:08:50.797Z,2.48
2022-08-19T09:11:45.104Z,2.44
2022-08-19T09:14:52.053Z,2.38
2022-08-19T09:17:32.872Z,2.34
2022-08-19T09:20:10.531Z,2.31
2022-08-19T09:22:46.010Z,2.25
2022-08-19T09:25:27.075Z,2.21
2022-08-19T09:28:05.659Z,2.18
2022-08-19T09:30:44.325Z,2.17
2022-08-19T09:33:14.921Z,2.15
2022-08-19T09:35:53.355Z,2.14
2022-08-19T09:38:25.152Z,2.10
2022-08-19T09:40:55.303Z,2.14
2022-08-19T09:43:33.833Z,2.14
2022-08-19T09:46:18.101Z,2.14
2022-08-19T09:48:50.583Z,2.17
2022-08-19T09:51:28.272Z,2.15
2022-08-19T09:54:04.785Z,2.11
2022-08-19T09:56:35.823Z,1.98
2022-08-19T09:59:06.849Z,2.05
2022-08-19T10:01:37.482Z,2.05
2022-08-19T10:04:19.692Z,2.15
2022-08-19T10:06:55.372Z,2.18
2022-08-19T10:09:26.232Z,2.17
2022-08-19T10:12:06.580Z,2.24
2022-08-19T10:14:41.604Z,2.24
2022-08-19T10:17:17.899Z,2.27
2022-08-19T10:19:55.280Z,2.20
2022-08-19T10:22:26.612Z,2.21
2022-08-19T10:24:56.979Z,2.24
2022-08-19T10:27:27.877Z,2.34
2022-08-19T10:30:03.313Z,2.35
2022-08-19T10:32:34.559Z,2.45
2022-08-19T10:35:10.186Z,2.71
2022-08-19T10:37:57.223Z,3.08
2022-08-19T10:40:30.236Z,3.25
2022-08-19T10:43:00.822Z,3.52
2022-08-19T10:45:30.762Z,3.90
2022-08-19T10:48:01.387Z,4.13
2022-08-19T10:50:51.547Z,4.36
2022-08-19T10:53:25.990Z,4.67
2022-08-19T10:56:14.747Z,4.98
2022-08-19T10:58:46.859Z,5.27
2022-08-19T11:01:17.771Z,5.54
2022-08-19T11:03:47.819Z,5.51
2022-08-19T11:06:18.081Z,5.67
2022-08-19T11:08:48.396Z,5.97
2022-08-19T11:11:19.308Z,6.15
2022-08-19T11:13:50.232Z,6.32
2022-08-19T11:16:23.961Z,6.46
2022-08-19T11:18:57.035Z,6.67
2022-08-19T11:21:35.184Z,6.80
2022-08-19T11:24:09.523Z,7.07
2022-08-19T11:26:41.742Z,7.38
2022-08-19T11:29:15.247Z,7.54
2022-08-19T11:31:49.358Z,7.26
2022-08-19T11:34:23.362Z,7.26
2022-08-19T11:36:54.964Z,7.11
2022-08-19T11:39:25.378Z,7.38
2022-08-19T11:41:55.601Z,7.61
2022-08-19T11:44:26.595Z,7.85
2022-08-19T11:46:57.690Z,7.66
2022-08-19T11:49:30.774Z,7.62
2022-08-19T11:52:01.276Z,7.58
2022-08-19T11:54:33.119Z,7.67
2022-08-19T11:57:06.279Z,7.75
2022-08-19T11:59:36.943Z,7.86
2022-08-19T12:02:07.524Z,7.69
2022-08-19T12:04:37.737Z,7.69
2022-08-19T12:07:08.659Z,7.85
2022-08-19T12:09:42.142Z,7.82
2022-08-19T12:12:14.135Z,8.10
2022-08-19T12:14:44.678Z,8.25
2022-08-19T12:17:15.570Z,8.21
2022-08-19T12:19:46.758Z,8.47
2022-08-19T12:22:16.948Z,8.56
2022-08-19T12:24:48.184Z,8.59
2022-08-19T12:27:32.345Z,8.58
2022-08-19T12:30:12.117Z,8.62
2022-08-19T12:32:42.812Z,8.82
2022-08-19T12:35:13.702Z,8.93
2022-08-19T12:37:57.104Z,9.43
2022-08-19T12:40:28.728Z,9.52
2022-08-19T12:42:59.093Z,9.48
2022-08-19T12:45:29.796Z,9.51
2022-08-19T12:48:00.619Z,9.68
2022-08-19T12:50:34.395Z,9.67
2022-08-19T12:53:04.413Z,9.86
2022-08-19T12:55:34.802Z,9.99
2022-08-19T12:58:05.215Z,9.86
2022-08-19T13:00:36.324Z,9.88
2022-08-19T13:03:06.622Z,10.36
2022-08-19T13:05:36.823Z,10.67
2022-08-19T13:08:07.675Z,10.83
2022-08-19T13:10:39.342Z,10.54
2022-08-19T13:13:14.554Z,10.53
2022-08-19T13:15:47.356Z,10.64
2022-08-19T13:18:18.148Z,10.77
2022-08-19T13:20:53.102Z,10.70
2022-08-19T13:23:23.946Z,10.87
2022-08-19T13:26:05.669Z,10.70
2022-08-19T13:28:55.159Z,10.98
2022-08-19T13:31:46.352Z,11.51
2022-08-19T13:34:18.908Z,11.45
2022-08-19T13:36:49.409Z,11.35
2022-08-19T13:39:19.451Z,11.38
2022-08-19T13:41:50.770Z,11.43
2022-08-19T13:44:22.780Z,11.58
2022-08-19T13:46:55.574Z,11.69
2022-08-19T13:49:25.788Z,12.23
2022-08-19T13:51:56.126Z,12.04
2022-08-19T13:54:27.240Z,12.20
2022-08-19T13:56:57.910Z,12.25
2022-08-19T13:59:28.270Z,12.49
2022-08-19T14:02:02.654Z,12.59
2022-08-19T14:04:33.484Z,12.30
2022-08-19T14:07:03.895Z,12.30
2022-08-19T14:09:34.402Z,12.71
2022-08-19T14:12:04.763Z,12.54
2022-08-19T14:14:39.274Z,12.69
2022-08-19T14:17:11.427Z,13.04
2022-08-19T14:19:43.277Z,13.57
2022-08-19T14:22:22.447Z,13.60
2022-08-19T14:24:53.212Z,13.81
2022-08-19T14:27:27.412Z,13.24
2022-08-19T14:29:57.521Z,12.97
2022-08-19T14:32:28.955Z,13.40
2022-08-19T14:34:59.724Z,13.60
2022-08-19T14:37:29.723Z,13.71
2022-08-19T14:40:00.271Z,13.37
2022-08-19T14:42:30.916Z,14.22
2022-08-19T14:45:02.334Z,14.12
2022-08-19T14:53:20.254Z,14.32
2022-08-19T14:55:51.545Z,14.15
2022-08-19T14:58:28.489Z,13.84
2022-08-19T15:01:03.372Z,14.08
2022-08-19T15:03:34.319Z,14.30
2022-08-19T15:06:07.364Z,14.13
2022-08-19T15:08:41.240Z,15.05
2022-08-19T15:11:17.880Z,15.28
2022-08-19T15:13:48.722Z,14.80
2022-08-19T15:16:20.377Z,14.88
2022-08-19T15:18:56.047Z,14.66
2022-08-19T15:21:27.958Z,14.69
2022-08-19T15:24:01.203Z,14.81
2022-08-19T15:26:34.383Z,15.24
2022-08-19T15:29:06.215Z,16.22
2022-08-19T15:31:38.140Z,15.63
2022-08-19T15:34:09.717Z,16.37
2022-08-19T15:36:40.427Z,17.50
2022-08-19T15:39:11.696Z,16.92
2022-08-19T15:41:42.328Z,15.50
2022-08-19T15:44:15.914Z,15.73
2022-08-19T15:46:48.421Z,15.97
2022-08-19T15:49:20.680Z,16.01
2022-08-19T15:51:54.227Z,16.35
2022-08-19T15:54:24.832Z,15.67
2022-08-19T15:57:13.785Z,15.55
2022-08-19T16:00:03.282Z,15.62
2022-08-19T16:02:53.715Z,15.65
2022-08-19T16:05:46.474Z,15.86
2022-08-19T16:08:17.382Z,15.42
2022-08-19T16:10:48.627Z,15.41
2022-08-19T16:13:19.336Z,15.90
2022-08-19T16:15:49.848Z,16.69
2022-08-19T16:18:20.683Z,16.04
2022-08-19T16:20:51.189Z,16.44
2022-08-19T16:23:21.600Z,16.86
2022-08-19T16:25:51.753Z,16.51
2022-08-19T16:28:24.034Z,16.04
2022-08-19T16:30:55.067Z,16.16
2022-08-19T16:33:25.357Z,15.90
2022-08-19T16:36:01.703Z,16.37
2022-08-19T16:38:38.842Z,16.85
2022-08-19T16:41:09.926Z,16.79
2022-08-19T16:43:41.248Z,17.29
2022-08-19T16:46:16.014Z,17.09
2022-08-19T16:48:49.796Z,16.86
2022-08-19T16:51:20.233Z,17.46
2022-08-19T16:53:50.927Z,17.19
2022-08-19T16:56:22.467Z,16.80
2022-08-19T16:58:53.420Z,16.73
2022-08-19T17:01:24.395Z,16.18
2022-08-19T17:03:56.269Z,16.11
2022-08-19T17:06:28.877Z,15.99
2022-08-19T17:09:04.431Z,16.61
2022-08-19T17:11:35.399Z,16.49
2022-08-19T17:14:07.974Z,17.19
2022-08-19T17:16:38.324Z,18.09
2022-08-19T17:19:10.102Z,16.73
2022-08-19T17:21:41.929Z,17.64
2022-08-19T17:24:12.228Z,17.55
2022-08-19T17:26:42.656Z,16.72
2022-08-19T17:29:13.778Z,17.06
2022-08-19T17:31:44.613Z,17.09
2022-08-19T17:34:15.143Z,16.93
2022-08-19T17:36:45.365Z,16.72
2022-08-19T17:39:16.119Z,16.32
2022-08-19T17:41:46.869Z,16.11
2022-08-19T17:44:17.020Z,16.58
2022-08-19T17:46:48.010Z,16.54
2022-08-19T17:49:19.122Z,16.59
2022-08-19T17:51:51.221Z,17.79
2022-08-19T17:54:22.556Z,18.53
2022-08-19T17:56:53.438Z,18.36
2022-08-19T17:59:24.287Z,17.97
2022-08-19T18:01:59.981Z,17.71
2022-08-19T18:04:31.044Z,16.99
2022-08-19T18:07:05.572Z,17.00
2022-08-19T18:09:43.039Z,17.15
2022-08-19T18:12:25.985Z,17.22
2022-08-19T18:14:56.535Z,17.00
2022-08-19T18:17:27.321Z,18.30
2022-08-19T18:19:59.281Z,17.31
2022-08-19T18:22:37.597Z,17.15
2022-08-19T18:25:13.196Z,16.85
2022-08-19T18:27:44.590Z,16.24
2022-08-19T18:30:15.970Z,15.97
2022-08-19T18:32:48.030Z,15.87
2022-08-19T18:35:22.598Z,15.76
2022-08-19T18:37:52.854Z,16.09
2022-08-19T18:40:43.726Z,16.64
2022-08-19T18:43:33.033Z,16.47
2022-08-19T18:46:21.673Z,15.99
2022-08-19T18:49:06.416Z,15.91
2022-08-19T18:51:37.374Z,16.45
2022-08-19T18:54:08.083Z,16.35
2022-08-19T18:56:40.630Z,16.03
2022-08-19T18:59:11.196Z,16.20
2022-08-19T19:01:51.970Z,15.83
2022-08-19T19:04:25.554Z,15.48
2022-08-19T19:06:56.505Z,15.38
2022-08-19T19:09:28.059Z,15.48
2022-08-19T19:12:02.267Z,15.18
2022-08-19T19:14:49.110Z,15.22
2022-08-19T19:17:27.092Z,15.28
2022-08-19T19:19:57.307Z,15.49
2022-08-19T19:22:27.726Z,15.28
2022-08-19T19:25:00.565Z,15.21
2022-08-19T19:27:30.730Z,15.48
2022-08-19T19:30:00.661Z,15.82
2022-08-19T19:32:38.977Z,15.12
2022-08-19T19:35:13.696Z,14.84
2022-08-19T19:37:44.918Z,14.73
2022-08-19T19:40:14.996Z,14.81
2022-08-19T19:42:44.967Z,14.80
2022-08-19T19:45:16.005Z,14.59
2022-08-19T19:47:51.314Z,14.79
2022-08-19T19:50:22.254Z,14.37
2022-08-19T19:52:56.357Z,14.42
2022-08-19T19:55:27.979Z,14.30
2022-08-19T19:58:01.225Z,14.47
2022-08-19T20:00:32.313Z,14.19
2022-08-19T20:03:02.460Z,14.13
2022-08-19T20:05:32.360Z,13.79
2022-08-19T20:08:20.537Z,13.71
2022-08-19T20:10:51.195Z,13.53
2022-08-19T20:13:21.778Z,13.41
2022-08-19T20:15:51.977Z,13.24
2022-08-19T20:18:22.706Z,13.12
2022-08-19T20:20:53.831Z,12.97
2022-08-19T20:23:25.540Z,12.93
2022-08-19T20:25:55.776Z,12.88
2022-08-19T20:28:25.854Z,13.03
2022-08-19T20:30:56.601Z,12.83
2022-08-19T20:33:26.996Z,12.62
2022-08-19T20:35:58.264Z,12.48
2022-08-19T20:38:28.424Z,12.48
2022-08-19T20:40:58.295Z,12.35
2022-08-19T20:43:28.505Z,12.08
2022-08-19T20:45:58.714Z,11.89
2022-08-19T20:48:29.191Z,11.82
2022-08-19T20:50:59.746Z,11.53
2022-08-19T20:53:30.244Z,11.32
2022-08-19T20:56:00.475Z,11.10
2022-08-19T20:58:30.982Z,10.94
2022-08-19T21:01:03.802Z,10.66
2022-08-19T21:03:42.508Z,10.57
2022-08-19T21:06:15.213Z,10.52
2022-08-19T21:08:45.533Z,10.36
2022-08-19T21:11:20.496Z,10.29
2022-08-19T21:13:53.931Z,10.17
2022-08-19T21:16:24.551Z,10.01
2022-08-19T21:18:54.762Z,9.99
2022-08-19T21:21:25.258Z,9.91
2022-08-19T21:23:55.210Z,9.68
2022-08-19T21:26:25.658Z,9.45
2022-08-19T21:28:55.633Z,9.34
2022-08-19T21:31:26.244Z,9.31
2022-08-19T21:33:57.053Z,9.24
2022-08-19T21:36:27.148Z,9.13
2022-08-19T21:38:56.990Z,9.07
2022-08-19T21:41:27.275Z,9.00
2022-08-19T21:43:58.059Z,9.02
2022-08-19T21:46:29.651Z,8.95
2022-08-19T21:48:59.728Z,8.80
2022-08-19T21:51:29.604Z,8.68
2022-08-19T21:54:00.613Z,8.55
2022-08-19T21:56:30.810Z,8.49
2022-08-19T21:59:01.077Z,8.45
2022-08-19T22:01:31.501Z,8.38
2022-08-19T22:04:02.275Z,8.27
2022-08-19T22:06:35.912Z,8.24
2022-08-19T22:09:06.626Z,8.21
2022-08-19T22:11:36.745Z,8.18
2022-08-19T22:14:07.517Z,8.21
2022-08-19T22:16:38.070Z,8.01
2022-08-19T22:19:09.186Z,7.80
2022-08-19T22:21:41.052Z,7.63
2022-08-19T22:24:12.133Z,7.52
2022-08-19T22:26:42.606Z,7.49
2022-08-19T22:29:17.159Z,7.34
2022-08-19T22:31:54.289Z,7.24
2022-08-19T22:34:29.783Z,7.14
2022-08-19T22:37:00.524Z,7.04
2022-08-19T22:39:30.374Z,6.94
2022-08-19T22:42:00.566Z,6.88
2022-08-19T22:44:31.221Z,6.76
2022-08-19T22:47:01.917Z,6.73
2022-08-19T22:49:32.085Z,6.58
2022-08-19T22:52:19.490Z,6.60
2022-08-19T22:54:56.012Z,6.57
2022-08-19T22:57:26.602Z,6.49
2022-08-19T23:00:01.123Z,6.45
2022-08-19T23:02:51.757Z,6.40
2022-08-19T23:05:25.390Z,6.32
2022-08-19T23:07:58.522Z,6.32
2022-08-19T23:10:30.184Z,6.32
2022-08-19T23:13:01.273Z,6.35
2022-08-19T23:15:34.033Z,6.18
2022-08-19T23:18:06.616Z,6.04
2022-08-19T23:20:40.237Z,6.05
2022-08-19T23:23:15.677Z,6.05
2022-08-19T23:25:45.775Z,6.05
2022-08-19T23:28:34.729Z,6.04
2022-08-19T23:31:07.190Z,6.04
2022-08-19T23:33:51.018Z,6.02
2022-08-19T23:36:23.759Z,6.01
2022-08-19T23:38:54.291Z,5.94
2022-08-19T23:41:24.910Z,5.99
2022-08-19T23:43:55.955Z,5.91
2022-08-19T23:46:28.305Z,5.84
2022-08-19T23:48:59.539Z,5.75
2022-08-19T23:51:29.974Z,5.73
2022-08-19T23:54:00.397Z,5.73
2022-08-19T23:56:30.307Z,5.70
2022-08-19T23:59:00.912Z,5.70
